Aeroporto :
LOGIN :

Iscrizione | Disclaimer

   EN    FR    IT 

 










Sommario :    VFR   VFR Marginale   IFR   IFR Intensivo   IFR Molto Intensivo
Visibilità : 
Base nubi : 
>= 8 km
>= 3000ft
5 / 8 km
1000 / 3000 ft
1500m / 5 km
500 / 1000 ft
800 / 1500m
200 / 500 ft
< 800m
< 200 ft
Simboli :   Temporali  Nebbia  Neve Forte  Precipitazioni Forti  Vento > 20 kt
SIGMETs :   Varie  Temporali  Ghiacco  Turbolenza  Onda orograficha  Ceneri Vulcaniche







- Altitudine del aeroporto : 302 ft
- Codice IATA : CGN


EDDK - Cologne Bonn

ULTIMO METAR :
  • 121520Z 26012KT 9999 -SHRA FEW012 BKN015 03/00 Q1011 TEMPO BKN013

METARs OBSOLETI :
  • 121450Z 27013KT 9999 VCSH FEW013 BKN017 BKN040 03/00 Q1011 TEMPO BKN013
  • 121420Z 26013KT 9999 VCSH FEW015 BKN019 BKN055 03/00 Q1010 NOSIG
  • 121350Z 27011KT 9999 VCSH FEW016CB SCT025 BKN060 04/01 Q1009 NOSIG
  • 121320Z 27012KT 9999 SCT016 SCT064 04/01 Q1009 NOSIG
  • 121250Z 26013KT 9999 SCT018 SCT050 05/01 Q1009 NOSIG

TAF TAF EDDK
Valido dal 12 a 12 ore il 13 a 18 ore UTC


121100Z 1212/1318 25014KT 9999 BKN020
BECMG 1213/1216 25008KT
BECMG 1219/1222 16006KT
BECMG 1306/1309 17012KT
TEMPO 1309/1312 RA
Nessun NOTAM noto per questo aeroporto.



MetMap, La meteo Aeronautica in un colpo d'occhio ! - Copyright ORBIFLY Dicembre 2007 - Disclaimer

ORBIFLY MET'MAP TEAM :

Programmazione e sviluppo : Alexandra Zaïnal
Concezione e sviluppo : Baudouin d'Aumeries
Co-Programmazione e sviluppo : Marc-Olivier Méhu
Supporto tecnico e logistico : Manuel Goepfert
Aiuto per la traduzione : Arnaldo La Scala

Contatto : metmap@orbifly.com




FONTI E CREDITI :

   NOAA